Time;durP1;ratioP1;P1;durP2;ratioP2;P2;SDS_P1;SDS_P2;PMS_P1;PMS_P2;Temp;Humidity;BMP_temperature;BMP_pressure;BME280_temperature;BME280_humidity;BME280_pressure;Samples;Min_cycle;Max_cycle;Signal;HPM_P1;HPM_P2
2022/02/23 00:00:42;;;;;;;2.30;0.82;;;25.80;72.80;;;;;;5165616;22;20776;-69
2022/02/23 00:03:05;;;;;;;2.38;1.00;;;25.80;73.10;;;;;;5170019;22;20076;-70
2022/02/23 00:05:27;;;;;;;3.78;0.85;;;25.80;72.80;;;;;;5168734;22;20022;-77
2022/02/23 00:07:50;;;;;;;3.28;1.02;;;25.90;72.70;;;;;;5166952;22;21006;-74
2022/02/23 00:10:13;;;;;;;1.48;1.00;;;25.90;72.70;;;;;;5171563;22;20954;-71
2022/02/23 00:12:35;;;;;;;0.87;0.63;;;25.90;72.60;;;;;;5169779;22;20015;-74
2022/02/23 00:14:58;;;;;;;2.08;1.08;;;26.00;72.50;;;;;;5134828;22;20073;-69
2022/02/23 00:17:24;;;;;;;1.23;0.43;;;26.00;72.50;;;;;;5173690;22;20130;-66
2022/02/23 00:19:47;;;;;;;1.90;0.77;;;26.00;72.50;;;;;;5167461;22;20055;-66
2022/02/23 00:22:09;;;;;;;1.25;0.70;;;26.00;72.50;;;;;;5167700;22;20065;-68
2022/02/23 00:24:32;;;;;;;1.50;0.70;;;26.00;72.50;;;;;;5174134;22;20026;-73
2022/02/23 00:26:54;;;;;;;2.97;0.77;;;26.10;72.60;;;;;;5137167;22;20089;-71
2022/02/23 00:29:17;;;;;;;1.98;0.85;;;26.10;72.40;;;;;;5171080;22;20881;-71
2022/02/23 00:31:39;;;;;;;2.13;0.50;;;26.10;72.50;;;;;;5176717;22;20465;-67
2022/02/23 00:34:02;;;;;;;3.15;1.08;;;26.10;72.50;;;;;;5136372;22;20870;-68
2022/02/23 00:36:25;;;;;;;1.80;0.70;;;26.10;72.50;;;;;;5169500;22;20727;-64
2022/02/23 00:38:47;;;;;;;2.17;0.65;;;26.10;72.50;;;;;;5176142;22;20022;-69
2022/02/23 00:41:10;;;;;;;2.47;0.60;;;26.10;72.50;;;;;;5143997;22;20338;-68
2022/02/23 00:43:32;;;;;;;1.40;0.68;;;26.10;72.50;;;;;;5176684;22;20018;-71
2022/02/23 00:45:55;;;;;;;2.60;0.63;;;26.20;72.60;;;;;;5181325;22;20518;-67
2022/02/23 00:48:17;;;;;;;1.55;0.60;;;26.20;72.50;;;;;;5172305;22;20015;-69
2022/02/23 00:50:40;;;;;;;7.22;0.88;;;26.20;72.50;;;;;;5172629;22;20007;-68
2022/02/23 00:53:02;;;;;;;1.95;0.60;;;26.20;72.50;;;;;;5185198;22;20015;-70
2022/02/23 00:55:25;;;;;;;1.77;0.70;;;26.20;72.50;;;;;;5182504;22;20488;-76
2022/02/23 00:57:47;;;;;;;1.58;0.80;;;26.20;72.50;;;;;;5180807;22;20015;-67
2022/02/23 01:00:10;;;;;;;1.70;0.73;;;26.20;72.40;;;;;;5183853;22;20023;-69
2022/02/23 01:05:50;;;;;;;4.68;0.75;;;26.30;72.50;;;;;;5165685;22;20754;-70
2022/02/23 01:08:12;;;;;;;1.67;0.73;;;26.30;72.50;;;;;;5188471;22;20018;-68
2022/02/23 01:10:35;;;;;;;2.63;0.70;;;26.30;72.50;;;;;;5179552;22;20611;-68
2022/02/23 01:12:58;;;;;;;1.25;0.77;;;26.30;72.50;;;;;;5155361;22;20030;-70
2022/02/23 01:15:21;;;;;;;4.35;0.98;;;26.30;72.40;;;;;;5155989;22;20179;-68
2022/02/23 01:17:43;;;;;;;1.27;0.70;;;26.30;72.40;;;;;;5160716;22;20161;-70
2022/02/23 01:20:06;;;;;;;1.70;0.77;;;26.40;72.40;;;;;;5157291;22;20100;-68
2022/02/23 01:22:28;;;;;;;2.78;0.82;;;26.40;72.40;;;;;;5149717;22;20015;-71
2022/02/23 01:24:51;;;;;;;2.70;0.80;;;26.40;72.50;;;;;;5119474;22;21006;-73
2022/02/23 01:27:14;;;;;;;5.55;1.30;;;26.40;72.40;;;;;;5152481;22;20148;-75
2022/02/23 01:29:39;;;;;;;3.80;1.00;;;26.40;72.40;;;;;;5152850;22;20020;-72
2022/02/23 01:32:01;;;;;;;2.47;1.00;;;26.40;72.40;;;;;;5156532;22;20007;-71
2022/02/23 01:34:24;;;;;;;2.78;0.70;;;26.50;72.40;;;;;;5150220;22;20015;-68
2022/02/23 01:36:46;;;;;;;2.67;1.02;;;26.50;72.40;;;;;;5152008;22;20089;-68
2022/02/23 01:39:09;;;;;;;5.47;0.80;;;26.50;72.40;;;;;;5156383;22;20145;-70
2022/02/23 01:41:31;;;;;;;3.33;0.82;;;26.50;72.40;;;;;;5151513;22;20154;-75
2022/02/23 01:43:54;;;;;;;3.15;0.85;;;26.50;72.40;;;;;;5151475;22;20109;-74
2022/02/23 01:46:17;;;;;;;2.05;0.90;;;26.50;72.20;;;;;;5158590;22;20021;-73
2022/02/23 01:48:40;;;;;;;1.67;0.77;;;26.50;72.20;;;;;;5151917;22;20087;-73
2022/02/23 01:51:02;;;;;;;2.40;0.60;;;26.50;72.10;;;;;;5152023;22;20020;-74
2022/02/23 01:53:25;;;;;;;1.35;0.57;;;26.50;72.80;;;;;;5159200;22;20015;-76
2022/02/23 01:55:47;;;;;;;2.80;0.68;;;26.50;72.10;;;;;;5149614;22;20134;-74
2022/02/23 01:58:10;;;;;;;3.13;0.77;;;26.50;72.10;;;;;;5156097;22;20015;-74
2022/02/23 02:00:33;;;;;;;1.17;0.60;;;26.50;72.10;;;;;;5159701;22;20129;-74
2022/02/23 02:02:56;;;;;;;3.50;0.73;;;26.50;72.10;;;;;;5150041;22;20018;-74
2022/02/23 02:05:18;;;;;;;2.30;0.70;;;26.60;72.10;;;;;;5153242;22;20015;-74
2022/02/23 02:07:41;;;;;;;0.57;0.50;;;26.50;72.10;;;;;;5160310;22;20414;-76
2022/02/23 02:10:05;;;;;;;2.15;0.70;;;26.50;72.10;;;;;;5153285;22;20669;-71
2022/02/23 02:12:28;;;;;;;1.35;0.40;;;26.60;72.10;;;;;;5153123;22;20829;-77
2022/02/23 02:14:50;;;;;;;1.90;0.60;;;26.50;72.10;;;;;;5167847;22;20384;-70
2022/02/23 02:17:13;;;;;;;6.25;0.90;;;26.50;72.10;;;;;;5151351;22;20050;-71
2022/02/23 02:19:35;;;;;;;2.97;0.77;;;26.60;72.50;;;;;;5152465;22;20027;-70
2022/02/23 02:22:02;;;;;;;5.18;1.13;;;26.60;72.10;;;;;;5160445;22;20007;-69
2022/02/23 02:24:28;;;;;;;5.32;1.33;;;26.60;71.90;;;;;;5124621;22;20467;-66
2022/02/23 02:26:51;;;;;;;2.40;1.08;;;26.50;72.00;;;;;;5128052;22;20172;-68
2022/02/23 02:29:13;;;;;;;2.73;1.10;;;26.50;72.10;;;;;;5156340;22;20530;-67
2022/02/23 02:31:36;;;;;;;2.15;1.20;;;26.50;72.20;;;;;;5151416;22;20042;-66
2022/02/23 02:33:58;;;;;;;2.95;1.05;;;26.50;72.20;;;;;;5160644;22;20237;-67
2022/02/23 02:36:21;;;;;;;2.92;0.90;;;26.50;72.30;;;;;;5153967;22;20015;-67
2022/02/23 02:38:43;;;;;;;3.25;1.10;;;26.50;72.30;;;;;;5156626;22;20023;-65
2022/02/23 02:41:05;;;;;;;6.38;0.90;;;26.60;72.30;;;;;;5159626;22;20011;-68
2022/02/23 02:43:28;;;;;;;2.92;0.82;;;26.60;72.30;;;;;;5154564;22;20355;-66
2022/02/23 02:45:50;;;;;;;2.35;1.25;;;26.60;72.20;;;;;;5122219;22;20018;-66
2022/02/23 02:48:13;;;;;;;3.60;1.35;;;26.60;72.20;;;;;;5161850;22;20102;-64
2022/02/23 02:50:35;;;;;;;4.60;1.33;;;26.60;72.10;;;;;;5161860;22;20037;-68
2022/02/23 02:52:58;;;;;;;3.00;1.15;;;26.60;72.10;;;;;;5153291;22;20406;-64
2022/02/23 02:55:21;;;;;;;4.15;1.17;;;26.70;72.20;;;;;;5164065;22;20117;-66
2022/02/23 02:57:43;;;;;;;2.47;0.95;;;26.70;72.20;;;;;;5159909;22;20623;-67
2022/02/23 03:00:10;;;;;;;1.58;0.88;;;26.70;72.20;;;;;;5157170;22;20031;-66
2022/02/23 03:02:32;;;;;;;3.67;1.40;;;26.70;72.20;;;;;;5168859;22;20007;-68
2022/02/23 03:04:55;;;;;;;4.78;1.15;;;26.70;72.20;;;;;;5158886;22;20122;-63
2022/02/23 03:07:17;;;;;;;3.78;1.35;;;26.80;72.20;;;;;;5159122;22;20015;-67
2022/02/23 03:09:40;;;;;;;2.72;1.10;;;26.80;72.20;;;;;;5161891;22;20869;-70
2022/02/23 03:12:03;;;;;;;4.75;1.00;;;26.80;72.20;;;;;;5161234;22;20037;-71
2022/02/23 03:14:25;;;;;;;4.85;1.15;;;26.80;72.10;;;;;;5161584;22;20073;-66
2022/02/23 03:16:48;;;;;;;1.95;0.90;;;26.80;72.00;;;;;;5164704;22;20015;-69
2022/02/23 03:19:11;;;;;;;3.13;1.13;;;26.80;72.10;;;;;;5158418;22;20593;-65
2022/02/23 03:21:33;;;;;;;5.63;1.25;;;26.80;72.10;;;;;;5157698;22;20019;-67
2022/02/23 03:23:56;;;;;;;3.60;0.90;;;26.80;72.10;;;;;;5166239;22;20764;-67
2022/02/23 03:26:18;;;;;;;3.70;1.00;;;26.80;72.10;;;;;;5157317;22;20805;-67
2022/02/23 03:28:42;;;;;;;1.52;0.68;;;26.90;72.20;;;;;;5160612;22;20026;-70
2022/02/23 03:31:04;;;;;;;1.65;0.88;;;26.90;72.10;;;;;;5165329;22;20027;-65
2022/02/23 03:33:27;;;;;;;2.50;0.60;;;26.80;71.90;;;;;;5158813;22;20098;-66
2022/02/23 03:35:49;;;;;;;3.28;1.15;;;26.90;71.90;;;;;;5126967;22;20110;-65
2022/02/23 03:38:12;;;;;;;1.58;0.82;;;26.90;71.90;;;;;;5161625;22;20019;-66
2022/02/23 03:40:36;;;;;;;3.70;0.90;;;26.90;71.90;;;;;;5162855;22;20023;-66
2022/02/23 03:42:59;;;;;;;3.95;1.00;;;27.00;71.90;;;;;;5155380;22;20111;-66
2022/02/23 03:45:21;;;;;;;2.63;1.00;;;27.00;71.90;;;;;;5164008;22;20011;-66
2022/02/23 03:47:44;;;;;;;2.30;0.80;;;27.00;71.90;;;;;;5151238;22;20026;-66
2022/02/23 03:50:09;;;;;;;2.20;0.82;;;27.00;71.90;;;;;;5154224;22;20527;-68
2022/02/23 03:52:32;;;;;;;2.00;0.95;;;27.00;71.90;;;;;;5152241;22;20023;-65
2022/02/23 03:54:54;;;;;;;3.38;1.15;;;27.00;71.80;;;;;;5149551;22;20102;-63
2022/02/23 03:57:17;;;;;;;1.67;0.88;;;27.00;71.80;;;;;;5151197;22;20905;-66
2022/02/23 03:59:39;;;;;;;4.63;1.00;;;27.00;71.70;;;;;;5160880;22;20031;-65
2022/02/23 04:02:01;;;;;;;3.58;1.10;;;27.00;71.80;;;;;;5157894;22;20065;-66
2022/02/23 04:04:24;;;;;;;2.45;0.77;;;27.10;71.80;;;;;;5153920;22;20096;-66
2022/02/23 04:06:48;;;;;;;2.25;0.80;;;27.10;71.90;;;;;;5163964;22;20023;-66
2022/02/23 04:09:10;;;;;;;;;;;27.10;71.90;;;;;;5156993;22;20806;-66
2022/02/23 04:11:33;;;;;;;2.83;0.93;;;27.10;71.90;;;;;;5155893;22;19903;-66
2022/02/23 04:13:55;;;;;;;4.15;0.93;;;27.10;71.80;;;;;;5162687;22;20019;-63
2022/02/23 04:16:18;;;;;;;3.33;1.25;;;27.10;71.80;;;;;;5123442;22;20019;-66
2022/02/23 04:18:41;;;;;;;1.45;0.77;;;27.20;71.80;;;;;;5159038;22;20363;-65
2022/02/23 04:21:04;;;;;;;2.50;0.90;;;27.20;71.80;;;;;;5129601;22;20481;-65
2022/02/23 04:23:26;;;;;;;3.08;0.90;;;27.20;71.90;;;;;;5159148;22;20011;-65
2022/02/23 04:25:49;;;;;;;3.17;1.17;;;27.20;71.60;;;;;;5157086;22;20019;-66
2022/02/23 04:28:11;;;;;;;2.83;1.15;;;27.30;71.60;;;;;;5165575;22;20021;-64
2022/02/23 04:30:33;;;;;;;2.65;0.98;;;27.30;71.70;;;;;;5157035;22;20111;-69
2022/02/23 04:32:56;;;;;;;1.98;0.80;;;27.30;71.60;;;;;;5152685;22;20076;-67
2022/02/23 04:35:18;;;;;;;1.83;0.77;;;27.30;71.60;;;;;;5164190;22;20907;-65
2022/02/23 04:37:41;;;;;;;2.58;0.95;;;27.30;71.50;;;;;;5155778;22;20481;-63
2022/02/23 04:40:05;;;;;;;3.30;0.90;;;27.30;71.60;;;;;;5160412;22;20049;-65
2022/02/23 04:42:28;;;;;;;2.78;1.15;;;27.30;71.70;;;;;;5166982;22;20015;-65
2022/02/23 04:44:50;;;;;;;2.95;1.10;;;27.30;71.90;;;;;;5161156;22;20094;-66
2022/02/23 04:47:13;;;;;;;2.65;1.40;;;27.30;72.00;;;;;;5162461;22;20062;-65
2022/02/23 04:49:36;;;;;;;5.65;1.60;;;27.30;72.00;;;;;;5164022;22;20576;-64
2022/02/23 04:52:01;;;;;;;4.00;1.52;;;27.30;72.00;;;;;;5155156;22;20033;-65
2022/02/23 04:54:23;;;;;;;2.78;1.55;;;27.40;72.10;;;;;;5155395;22;20623;-65
2022/02/23 04:56:47;;;;;;;5.40;1.40;;;27.40;72.10;;;;;;5171264;22;20014;-65
2022/02/23 04:59:15;;;;;;;4.25;1.65;;;27.40;72.00;;;;;;5154169;22;20024;-66
2022/02/23 05:01:40;;;;;;;5.22;1.13;;;27.50;72.00;;;;;;5155488;22;20469;-66
2022/02/23 05:04:04;;;;;;;3.78;1.27;;;27.50;72.00;;;;;;5192922;22;20330;-64
2022/02/23 05:06:25;;;;;;;;;;;27.50;71.90;;;;;;5179710;22;20521;-67
2022/02/23 05:08:48;;;;;;;3.78;1.52;;;27.50;71.90;;;;;;5194445;22;19909;-64
2022/02/23 05:11:11;;;;;;;4.57;1.93;;;27.50;72.00;;;;;;5156311;22;20008;-65
2022/02/23 05:13:39;;;;;;;5.28;1.95;;;27.50;72.00;;;;;;5176621;22;20481;-65
2022/02/23 05:16:04;;;;;;;8.38;1.80;;;27.50;72.10;;;;;;5155612;22;20007;-67
2022/02/23 05:18:27;;;;;;;3.67;1.75;;;27.50;72.00;;;;;;5149409;22;20015;-66
2022/02/23 05:20:50;;;;;;;5.35;1.60;;;27.50;72.10;;;;;;5145745;22;20019;-66
2022/02/23 05:23:14;;;;;;;3.25;1.25;;;27.50;72.20;;;;;;5147998;22;20561;-65
2022/02/23 05:25:37;;;;;;;2.75;1.20;;;27.50;72.20;;;;;;5112536;22;20102;-68
2022/02/23 05:28:00;;;;;;;5.22;1.73;;;27.50;72.30;;;;;;5147056;22;20011;-70
2022/02/23 05:30:23;;;;;;;5.15;1.35;;;27.50;72.30;;;;;;5146046;22;20019;-69
2022/02/23 05:32:45;;;;;;;2.53;1.38;;;27.50;72.50;;;;;;5148557;22;20022;-71
2022/02/23 05:35:08;;;;;;;6.27;1.60;;;27.50;72.50;;;;;;5152302;22;20061;-66
2022/02/23 05:37:32;;;;;;;3.00;1.15;;;27.50;73.20;;;;;;5146477;22;20312;-67
2022/02/23 05:39:54;;;;;;;5.88;1.35;;;27.50;72.60;;;;;;5147442;22;20030;-66
2022/02/23 05:42:16;;;;;;;3.67;1.73;;;27.50;72.70;;;;;;5121069;22;20039;-65
2022/02/23 05:44:39;;;;;;;3.22;1.15;;;27.60;72.80;;;;;;5116947;22;20860;-67
2022/02/23 05:47:01;;;;;;;4.68;1.33;;;27.60;72.70;;;;;;5121301;22;20016;-66
2022/02/23 05:49:24;;;;;;;2.63;0.88;;;27.60;72.70;;;;;;5153372;22;21195;-66
2022/02/23 05:51:47;;;;;;;4.57;1.50;;;27.70;72.70;;;;;;5149523;22;20014;-67
2022/02/23 05:54:10;;;;;;;4.50;1.27;;;27.70;72.70;;;;;;5151009;22;20103;-74
2022/02/23 05:56:34;;;;;;;4.82;1.35;;;27.80;72.60;;;;;;5158831;22;20511;-74
2022/02/23 05:58:57;;;;;;;2.88;1.20;;;27.80;72.50;;;;;;5157235;22;20027;-73
2022/02/23 06:01:20;;;;;;;5.53;1.42;;;27.90;72.10;;;;;;5155818;22;20011;-75
2022/02/23 06:03:50;;;;;;;3.20;1.00;;;27.90;71.90;;;;;;5162004;22;20041;-72
2022/02/23 06:06:12;;;;;;;1.88;0.80;;;28.00;71.90;;;;;;5154904;22;20329;-75
2022/02/23 06:08:36;;;;;;;5.28;1.50;;;28.00;71.60;;;;;;5157961;22;20023;-76
2022/02/23 06:10:59;;;;;;;3.78;0.88;;;28.10;71.50;;;;;;5160850;22;20014;-78
2022/02/23 06:13:22;;;;;;;2.78;1.08;;;28.20;71.40;;;;;;5156775;22;20080;-72
2022/02/23 06:15:44;;;;;;;5.88;1.40;;;28.20;71.20;;;;;;5132072;22;20328;-73
2022/02/23 06:18:24;;;;;;;2.85;1.02;;;28.30;71.10;;;;;;5161418;22;20023;-74
2022/02/23 06:20:47;;;;;;;3.28;1.15;;;28.30;70.90;;;;;;5164258;22;20018;-72
2022/02/23 06:23:10;;;;;;;2.10;0.93;;;28.30;70.80;;;;;;5165316;22;20447;-73
2022/02/23 06:25:32;;;;;;;;;;;28.40;70.70;;;;;;5168299;22;20057;-68
2022/02/23 06:27:55;;;;;;;2.65;0.90;;;28.40;70.70;;;;;;5171412;22;19906;-69
2022/02/23 06:30:18;;;;;;;2.35;0.95;;;28.40;70.60;;;;;;5167127;22;20015;-63
2022/02/23 06:32:41;;;;;;;2.13;0.90;;;28.30;70.50;;;;;;5166298;22;20046;-65
2022/02/23 06:35:04;;;;;;;3.25;0.90;;;28.40;70.50;;;;;;5174171;22;20787;-63
2022/02/23 06:37:26;;;;;;;2.58;1.13;;;28.40;70.30;;;;;;5167884;22;20019;-61
2022/02/23 06:39:50;;;;;;;4.70;1.13;;;28.40;70.40;;;;;;5167301;22;20023;-63
2022/02/23 06:42:13;;;;;;;3.60;0.82;;;28.30;70.50;;;;;;5165111;22;20019;-60
2022/02/23 06:44:35;;;;;;;2.15;0.82;;;28.30;70.30;;;;;;5160959;22;20072;-62
2022/02/23 06:47:00;;;;;;;3.55;1.00;;;28.30;70.50;;;;;;5182986;22;20199;-62
2022/02/23 06:49:22;;;;;;;2.28;1.10;;;28.30;70.60;;;;;;5205906;22;20405;-62
2022/02/23 06:51:47;;;;;;;4.28;1.27;;;28.30;70.40;;;;;;5205485;22;20019;-63
2022/02/23 06:54:10;;;;;;;5.50;1.13;;;28.30;70.40;;;;;;5176215;22;20023;-62
2022/02/23 06:56:33;;;;;;;1.95;1.10;;;28.30;70.40;;;;;;5205994;22;20486;-63
2022/02/23 06:58:55;;;;;;;1.53;0.50;;;28.20;70.40;;;;;;5207253;22;20724;-63
2022/02/23 07:01:20;;;;;;;3.47;1.00;;;28.30;70.50;;;;;;5205346;22;20707;-61
2022/02/23 07:03:43;;;;;;;4.07;1.25;;;28.20;70.40;;;;;;5207857;22;20122;-62
2022/02/23 07:06:05;;;;;;;;;;;28.20;70.50;;;;;;5208533;22;20045;-63
2022/02/23 07:08:27;;;;;;;2.35;0.90;;;28.20;70.50;;;;;;5203567;22;20416;-63
2022/02/23 07:10:50;;;;;;;3.67;0.75;;;28.20;70.50;;;;;;5202036;22;20015;-62
2022/02/23 07:13:12;;;;;;;4.50;1.38;;;28.20;70.60;;;;;;5202510;22;20023;-63
2022/02/23 07:15:35;;;;;;;3.13;1.17;;;28.10;70.50;;;;;;5201590;22;20528;-63
2022/02/23 07:17:58;;;;;;;4.72;1.48;;;28.20;70.60;;;;;;5206215;22;20064;-63
2022/02/23 07:20:22;;;;;;;2.57;1.37;;;28.20;70.70;;;;;;5205459;22;20026;-64
2022/02/23 07:22:45;;;;;;;4.35;1.52;;;28.10;70.70;;;;;;5207987;22;20280;-64
2022/02/23 07:25:09;;;;;;;6.00;1.52;;;28.10;70.70;;;;;;5204984;22;20019;-64
2022/02/23 07:27:32;;;;;;;3.63;1.30;;;28.10;70.70;;;;;;5203694;22;20635;-64
2022/02/23 07:29:54;;;;;;;2.58;1.20;;;28.10;70.70;;;;;;5205743;22;20015;-64
2022/02/23 07:32:17;;;;;;;3.38;1.20;;;28.10;70.80;;;;;;5204283;22;20034;-63
2022/02/23 07:34:41;;;;;;;5.35;1.23;;;28.10;70.80;;;;;;5204164;22;20019;-64
2022/02/23 07:37:03;;;;;;;3.63;1.25;;;28.10;70.80;;;;;;5175165;22;20298;-63
2022/02/23 07:39:26;;;;;;;2.33;1.20;;;28.10;70.90;;;;;;5202224;22;20027;-63
2022/02/23 07:41:48;;;;;;;2.65;1.50;;;28.10;70.90;;;;;;5204619;22;20026;-64
2022/02/23 07:44:11;;;;;;;2.33;1.10;;;28.00;71.00;;;;;;5202289;22;20011;-64
2022/02/23 07:46:33;;;;;;;3.70;1.23;;;28.00;71.10;;;;;;5204078;22;20443;-64
2022/02/23 07:49:00;;;;;;;2.55;1.30;;;28.00;71.30;;;;;;5198835;22;20813;-64
2022/02/23 07:51:23;;;;;;;2.22;1.08;;;28.00;71.50;;;;;;5170865;22;20689;-63
2022/02/23 07:53:48;;;;;;;4.57;1.33;;;28.00;71.60;;;;;;5201808;22;20019;-63
2022/02/23 07:56:11;;;;;;;3.70;1.30;;;28.00;71.60;;;;;;5203262;22;20338;-64
2022/02/23 07:58:33;;;;;;;5.30;1.20;;;28.00;71.80;;;;;;5205658;22;20011;-64
2022/02/23 08:00:57;;;;;;;3.95;1.20;;;28.00;71.80;;;;;;5205608;22;20359;-64
2022/02/23 08:03:19;;;;;;;4.78;1.30;;;28.00;71.90;;;;;;5193888;22;20045;-63
2022/02/23 08:05:45;;;;;;;2.53;1.10;;;28.00;71.80;;;;;;5201151;22;20011;-64
2022/02/23 08:08:08;;;;;;;3.20;1.13;;;28.00;71.90;;;;;;5206219;22;20051;-64
2022/02/23 08:10:33;;;;;;;1.90;1.05;;;27.90;72.00;;;;;;5208211;22;20046;-64
2022/02/23 08:12:58;;;;;;;3.15;1.17;;;27.90;72.10;;;;;;5205927;22;20019;-64
2022/02/23 08:20:42;;;;;;;2.80;1.13;;;27.90;72.50;;;;;;5201027;22;20023;-66
2022/02/23 08:23:05;;;;;;;5.35;1.63;;;27.90;72.50;;;;;;5206323;22;20011;-64
2022/02/23 08:25:27;;;;;;;1.88;1.00;;;27.90;72.80;;;;;;5206435;22;20048;-66
2022/02/23 08:27:50;;;;;;;3.70;1.50;;;27.90;72.70;;;;;;5204680;22;20042;-65
2022/02/23 08:30:13;;;;;;;3.13;1.13;;;27.90;72.70;;;;;;5205963;22;20011;-64
2022/02/23 08:32:35;;;;;;;3.65;1.58;;;27.90;72.80;;;;;;5207091;22;20173;-65
2022/02/23 08:34:58;;;;;;;2.38;1.38;;;27.80;72.60;;;;;;5207828;22;20336;-65
2022/02/23 08:37:21;;;;;;;3.45;1.20;;;27.80;72.60;;;;;;5206484;22;20072;-64
2022/02/23 08:39:44;;;;;;;3.50;1.20;;;27.80;72.50;;;;;;5207264;22;20059;-64
2022/02/23 08:42:07;;;;;;;;;;;27.80;72.50;;;;;;5206325;22;20061;-64
2022/02/23 08:44:30;;;;;;;3.42;1.40;;;27.80;72.40;;;;;;5202546;22;20765;-64
2022/02/23 08:46:52;;;;;;;3.25;1.50;;;27.80;72.60;;;;;;5175719;22;20041;-65
2022/02/23 08:49:15;;;;;;;3.15;1.33;;;27.80;72.40;;;;;;5175380;22;20019;-65
2022/02/23 08:51:44;;;;;;;2.93;1.50;;;27.80;72.50;;;;;;5212952;22;20049;-64
2022/02/23 08:54:06;;;;;;;2.63;1.40;;;27.80;72.60;;;;;;5215971;22;20072;-65
2022/02/23 08:56:32;;;;;;;3.33;1.60;;;27.70;72.50;;;;;;5209213;22;20486;-66
2022/02/23 08:58:55;;;;;;;3.88;1.23;;;27.70;72.50;;;;;;5176655;22;20414;-65
2022/02/23 09:01:18;;;;;;;4.30;1.45;;;27.70;72.60;;;;;;5182301;22;20030;-65
2022/02/23 09:03:43;;;;;;;2.47;1.25;;;27.70;72.50;;;;;;5183431;22;20462;-64
2022/02/23 09:06:06;;;;;;;3.38;1.42;;;27.70;72.50;;;;;;5213925;22;20023;-65
2022/02/23 09:08:28;;;;;;;3.33;1.25;;;27.70;72.60;;;;;;5178928;22;20077;-64
2022/02/23 09:10:54;;;;;;;2.95;1.40;;;27.70;72.50;;;;;;5206332;22;20023;-66
2022/02/23 09:13:16;;;;;;;4.20;1.38;;;27.60;72.40;;;;;;5204565;22;20102;-64
2022/02/23 09:15:39;;;;;;;4.43;1.58;;;27.60;72.40;;;;;;5207341;22;20022;-64
2022/02/23 09:18:05;;;;;;;2.10;1.02;;;27.60;72.40;;;;;;5206745;22;21052;-63
2022/02/23 09:20:28;;;;;;;2.88;1.17;;;27.60;72.40;;;;;;5205810;22;20019;-63
2022/02/23 09:22:52;;;;;;;2.22;1.13;;;27.60;73.30;;;;;;5205585;22;20616;-65
2022/02/23 09:25:14;;;;;;;4.40;1.42;;;27.50;73.60;;;;;;5176206;22;20016;-63
2022/02/23 09:27:39;;;;;;;2.42;1.08;;;27.50;73.70;;;;;;5207594;22;20019;-64
2022/02/23 09:30:08;;;;;;;1.60;0.73;;;27.50;73.90;;;;;;5208619;22;20307;-65
2022/02/23 09:32:30;;;;;;;2.78;0.93;;;27.50;73.90;;;;;;5198374;22;20521;-64
2022/02/23 09:34:53;;;;;;;2.13;1.00;;;27.50;74.00;;;;;;5207747;22;20520;-64
2022/02/23 09:37:16;;;;;;;1.95;1.00;;;27.50;74.10;;;;;;5208107;22;20122;-65
2022/02/23 09:39:38;;;;;;;1.95;0.90;;;27.50;74.10;;;;;;5205966;22;20080;-62
2022/02/23 09:42:01;;;;;;;1.95;0.90;;;27.50;74.10;;;;;;5207005;22;20083;-63
2022/02/23 09:44:25;;;;;;;2.28;0.90;;;27.50;74.20;;;;;;5204059;22;20462;-65
2022/02/23 09:46:47;;;;;;;;;;;27.50;74.20;;;;;;5201228;22;20023;-63
2022/02/23 09:49:10;;;;;;;3.00;1.15;;;27.50;74.20;;;;;;5201007;22;19977;-65
2022/02/23 09:51:33;;;;;;;0.93;0.70;;;27.50;74.20;;;;;;5200905;22;20046;-67
2022/02/23 09:53:56;;;;;;;2.70;1.10;;;27.60;74.20;;;;;;5201067;22;20676;-68
2022/02/23 09:56:19;;;;;;;2.85;0.73;;;27.50;74.20;;;;;;5201487;22;20011;-65
2022/02/23 09:58:42;;;;;;;1.87;1.00;;;27.50;74.10;;;;;;5200857;22;20015;-67
2022/02/23 10:01:07;;;;;;;1.33;0.65;;;27.50;74.10;;;;;;5200362;22;20412;-67
2022/02/23 10:03:33;;;;;;;2.13;0.90;;;27.50;74.10;;;;;;5200708;22;20118;-65
2022/02/23 10:05:59;;;;;;;3.10;0.80;;;27.60;74.10;;;;;;5199606;22;20015;-60
2022/02/23 10:08:33;;;;;;;2.17;0.85;;;27.60;74.10;;;;;;5200383;22;20015;-61
2022/02/23 10:10:57;;;;;;;3.33;0.80;;;27.60;74.10;;;;;;5200645;22;20023;-61
2022/02/23 10:13:22;;;;;;;3.33;0.82;;;27.60;74.10;;;;;;5199721;22;20100;-62
2022/02/23 10:15:48;;;;;;;2.80;0.70;;;27.70;74.10;;;;;;5190367;22;20012;-62
2022/02/23 10:18:15;;;;;;;1.85;0.60;;;27.70;74.70;;;;;;5167194;22;20050;-63
2022/02/23 10:20:40;;;;;;;2.03;0.73;;;27.70;74.00;;;;;;5200017;22;20042;-61
2022/02/23 10:23:05;;;;;;;0.95;0.60;;;27.70;73.90;;;;;;5199754;22;20015;-62
2022/02/23 10:25:30;;;;;;;2.85;0.75;;;27.70;73.80;;;;;;5167862;22;20011;-64
2022/02/23 10:28:14;;;;;;;2.55;0.80;;;27.70;73.80;;;;;;5201695;22;20325;-63
2022/02/23 10:30:46;;;;;;;2.13;0.90;;;27.70;73.80;;;;;;5202134;22;20022;-63
2022/02/23 10:33:18;;;;;;;3.30;1.05;;;27.70;73.70;;;;;;5203128;22;20015;-63
2022/02/23 10:35:50;;;;;;;1.45;0.68;;;27.80;73.80;;;;;;5205292;22;20023;-69
2022/02/23 10:38:21;;;;;;;1.52;0.57;;;27.70;73.70;;;;;;5205420;22;20395;-67
2022/02/23 10:40:43;;;;;;;1.20;0.70;;;27.80;73.80;;;;;;5203720;22;20031;-67
2022/02/23 10:43:30;;;;;;;1.27;0.70;;;27.80;73.70;;;;;;5202044;22;20098;-66
2022/02/23 10:46:01;;;;;;;1.85;0.73;;;27.80;73.60;;;;;;5202368;22;20011;-63
2022/02/23 10:48:34;;;;;;;2.17;0.70;;;27.80;73.50;;;;;;5173368;22;20085;-66
2022/02/23 10:50:57;;;;;;;2.20;0.60;;;27.80;73.50;;;;;;5202615;22;20015;-64
2022/02/23 10:53:27;;;;;;;1.15;0.65;;;27.80;73.50;;;;;;5202316;22;20015;-62
2022/02/23 10:55:49;;;;;;;5.18;1.38;;;27.80;73.50;;;;;;5171188;22;20417;-66
2022/02/23 10:58:12;;;;;;;3.58;0.75;;;27.80;73.50;;;;;;5203802;22;20114;-66
2022/02/23 11:00:36;;;;;;;5.20;1.23;;;27.80;73.40;;;;;;5207552;22;20516;-64
2022/02/23 11:02:59;;;;;;;2.05;0.85;;;27.90;73.40;;;;;;5206682;22;20041;-62
2022/02/23 11:05:25;;;;;;;3.08;0.88;;;27.90;73.30;;;;;;5205276;22;20011;-62
2022/02/23 11:07:48;;;;;;;2.92;0.68;;;27.90;73.20;;;;;;5206973;22;20465;-62
2022/02/23 11:10:13;;;;;;;3.20;0.80;;;27.90;73.20;;;;;;5206749;22;20018;-65
2022/02/23 11:12:36;;;;;;;1.40;1.00;;;27.90;73.20;;;;;;5207650;22;20030;-67
2022/02/23 11:14:59;;;;;;;2.83;0.73;;;27.90;73.10;;;;;;5203822;22;20120;-63
2022/02/23 11:17:22;;;;;;;1.25;0.60;;;27.90;73.10;;;;;;5206506;22;20015;-62
2022/02/23 11:19:46;;;;;;;2.65;0.63;;;27.90;73.10;;;;;;5204487;22;20321;-64
2022/02/23 11:22:08;;;;;;;1.95;0.90;;;27.90;73.70;;;;;;5199082;22;20046;-65
2022/02/23 11:24:31;;;;;;;2.60;0.80;;;27.90;73.10;;;;;;5197084;22;20098;-65
2022/02/23 11:26:55;;;;;;;1.95;0.70;;;27.90;73.10;;;;;;5208047;22;20088;-62
2022/02/23 11:30:05;;;;;;;2.35;0.90;;;27.90;73.00;;;;;;5205373;22;20678;-67
2022/02/23 11:32:38;;;;;;;2.80;0.85;;;27.90;73.00;;;;;;5200318;22;20520;-68
2022/02/23 11:35:01;;;;;;;2.03;0.88;;;27.90;72.90;;;;;;5208220;22;20015;-64
2022/02/23 11:37:23;;;;;;;2.55;0.75;;;27.90;72.60;;;;;;5206209;22;20435;-71
2022/02/23 11:39:46;;;;;;;2.45;1.00;;;27.90;72.80;;;;;;5205004;22;20038;-63
2022/02/23 11:42:10;;;;;;;2.45;0.88;;;27.90;72.90;;;;;;5205793;22;20092;-65
2022/02/23 11:44:40;;;;;;;8.65;1.40;;;27.90;73.00;;;;;;5197812;22;20015;-65
2022/02/23 11:47:14;;;;;;;9.13;1.60;;;27.90;73.10;;;;;;5202807;22;20037;-60
2022/02/23 11:49:37;;;;;;;4.13;0.77;;;27.90;73.10;;;;;;5204670;22;20023;-63
2022/02/23 11:52:14;;;;;;;2.03;1.17;;;27.90;73.80;;;;;;5203628;22;20117;-62
2022/02/23 11:55:11;;;;;;;4.38;0.98;;;27.90;73.10;;;;;;5204376;22;20101;-68
2022/02/23 11:57:50;;;;;;;5.25;0.93;;;27.90;73.20;;;;;;5200155;22;20152;-64
2022/02/23 12:00:15;;;;;;;3.55;0.80;;;27.90;73.20;;;;;;5201759;22;20034;-62
2022/02/23 12:02:39;;;;;;;2.85;0.80;;;28.00;73.30;;;;;;5202812;22;20010;-62
2022/02/23 12:05:03;;;;;;;3.72;0.70;;;27.90;73.20;;;;;;5201424;22;20453;-63
2022/02/23 12:07:26;;;;;;;1.15;0.50;;;27.90;73.20;;;;;;5195928;22;20023;-63
2022/02/23 12:10:01;;;;;;;1.65;0.65;;;27.90;73.20;;;;;;5196371;22;20077;-63
2022/02/23 12:12:44;;;;;;;2.53;0.90;;;27.90;73.20;;;;;;5195461;22;20398;-66
2022/02/23 12:15:19;;;;;;;4.93;0.73;;;27.90;73.40;;;;;;5207464;22;20176;-65
2022/02/23 12:18:00;;;;;;;8.20;1.00;;;28.00;73.40;;;;;;5205533;22;20042;-64
2022/02/23 12:20:38;;;;;;;1.38;0.50;;;28.00;73.40;;;;;;5206455;22;20170;-65
2022/02/23 12:23:09;;;;;;;1.25;0.43;;;28.00;73.30;;;;;;5196673;22;20007;-65
2022/02/23 12:25:50;;;;;;;3.00;0.95;;;28.00;73.30;;;;;;5205665;22;20481;-65
2022/02/23 12:28:12;;;;;;;1.60;0.65;;;28.00;73.30;;;;;;5204083;22;20015;-66
2022/02/23 12:30:39;;;;;;;1.30;0.52;;;28.00;73.20;;;;;;5203673;22;20082;-63
2022/02/23 12:33:10;;;;;;;1.17;0.60;;;28.00;73.30;;;;;;5195407;22;20015;-63
2022/02/23 12:35:37;;;;;;;1.73;0.82;;;28.00;73.20;;;;;;5203675;22;20045;-67
2022/02/23 12:38:02;;;;;;;1.48;0.60;;;28.00;73.20;;;;;;5206444;22;20479;-64
2022/02/23 12:40:24;;;;;;;0.90;0.50;;;28.00;73.20;;;;;;5205549;22;20057;-63